sensor_id;sensor_type;location;lat;lon;timestamp;P1;durP1;ratioP1;P2;durP2;ratioP2
61741;SDS011;47650;49.848;9.620;2023-04-03T00:01:25;5.88;;;4.50;;
61741;SDS011;47650;49.848;9.620;2023-04-03T00:03:53;6.00;;;4.70;;
61741;SDS011;47650;49.848;9.620;2023-04-03T00:06:27;5.97;;;4.20;;
61741;SDS011;47650;49.848;9.620;2023-04-03T00:08:58;8.00;;;4.60;;
61741;SDS011;47650;49.848;9.620;2023-04-03T00:11:27;6.82;;;4.35;;
61741;SDS011;47650;49.848;9.620;2023-04-03T00:13:52;4.30;;;3.85;;
61741;SDS011;47650;49.848;9.620;2023-04-03T00:16:19;5.18;;;3.90;;
61741;SDS011;47650;49.848;9.620;2023-04-03T00:18:46;4.10;;;3.13;;
61741;SDS011;47650;49.848;9.620;2023-04-03T00:21:12;5.43;;;3.75;;
61741;SDS011;47650;49.848;9.620;2023-04-03T00:23:39;6.78;;;3.40;;
61741;SDS011;47650;49.848;9.620;2023-04-03T00:26:07;6.00;;;3.50;;
61741;SDS011;47650;49.848;9.620;2023-04-03T00:28:35;3.67;;;3.08;;
61741;SDS011;47650;49.848;9.620;2023-04-03T00:31:07;5.45;;;3.05;;
61741;SDS011;47650;49.848;9.620;2023-04-03T00:33:32;10.02;;;3.85;;
61741;SDS011;47650;49.848;9.620;2023-04-03T00:35:59;4.68;;;2.88;;
61741;SDS011;47650;49.848;9.620;2023-04-03T00:38:31;6.18;;;3.42;;
61741;SDS011;47650;49.848;9.620;2023-04-03T00:40:58;4.50;;;3.05;;
61741;SDS011;47650;49.848;9.620;2023-04-03T00:43:27;4.13;;;3.10;;
61741;SDS011;47650;49.848;9.620;2023-04-03T00:45:57;6.35;;;3.30;;
61741;SDS011;47650;49.848;9.620;2023-04-03T00:51:23;4.28;;;3.70;;
61741;SDS011;47650;49.848;9.620;2023-04-03T00:53:55;3.90;;;2.72;;
61741;SDS011;47650;49.848;9.620;2023-04-03T00:56:27;5.53;;;3.30;;
61741;SDS011;47650;49.848;9.620;2023-04-03T00:59:12;4.97;;;3.00;;
61741;SDS011;47650;49.848;9.620;2023-04-03T01:01:41;5.03;;;3.00;;
61741;SDS011;47650;49.848;9.620;2023-04-03T01:06:56;3.38;;;2.90;;
61741;SDS011;47650;49.848;9.620;2023-04-03T01:09:40;5.60;;;3.22;;
61741;SDS011;47650;49.848;9.620;2023-04-03T01:12:28;5.40;;;3.08;;
61741;SDS011;47650;49.848;9.620;2023-04-03T01:14:56;5.40;;;3.30;;
61741;SDS011;47650;49.848;9.620;2023-04-03T01:17:58;3.70;;;3.03;;
61741;SDS011;47650;49.848;9.620;2023-04-03T01:23:28;3.58;;;2.70;;
61741;SDS011;47650;49.848;9.620;2023-04-03T01:26:05;6.63;;;2.88;;
61741;SDS011;47650;49.848;9.620;2023-04-03T01:28:33;6.35;;;2.88;;
61741;SDS011;47650;49.848;9.620;2023-04-03T01:31:21;5.50;;;3.00;;
61741;SDS011;47650;49.848;9.620;2023-04-03T01:33:47;4.32;;;2.80;;
61741;SDS011;47650;49.848;9.620;2023-04-03T01:36:15;6.57;;;3.17;;
61741;SDS011;47650;49.848;9.620;2023-04-03T01:38:46;5.00;;;2.90;;
61741;SDS011;47650;49.848;9.620;2023-04-03T01:41:15;4.40;;;2.80;;
61741;SDS011;47650;49.848;9.620;2023-04-03T01:43:45;5.38;;;3.10;;
61741;SDS011;47650;49.848;9.620;2023-04-03T01:46:12;4.20;;;2.63;;
61741;SDS011;47650;49.848;9.620;2023-04-03T01:48:38;3.90;;;2.88;;
61741;SDS011;47650;49.848;9.620;2023-04-03T01:51:10;5.15;;;3.00;;
61741;SDS011;47650;49.848;9.620;2023-04-03T01:53:35;5.22;;;2.70;;
61741;SDS011;47650;49.848;9.620;2023-04-03T01:56:09;6.53;;;2.90;;
61741;SDS011;47650;49.848;9.620;2023-04-03T01:58:47;4.88;;;2.90;;
61741;SDS011;47650;49.848;9.620;2023-04-03T02:01:14;6.70;;;3.22;;
61741;SDS011;47650;49.848;9.620;2023-04-03T02:03:44;4.65;;;3.10;;
61741;SDS011;47650;49.848;9.620;2023-04-03T02:06:10;4.80;;;3.13;;
61741;SDS011;47650;49.848;9.620;2023-04-03T02:08:45;4.45;;;2.95;;
61741;SDS011;47650;49.848;9.620;2023-04-03T02:11:21;5.47;;;3.05;;
61741;SDS011;47650;49.848;9.620;2023-04-03T02:13:47;4.45;;;3.08;;
61741;SDS011;47650;49.848;9.620;2023-04-03T02:16:15;4.22;;;2.92;;
61741;SDS011;47650;49.848;9.620;2023-04-03T02:18:49;5.35;;;3.10;;
61741;SDS011;47650;49.848;9.620;2023-04-03T02:23:41;4.25;;;2.97;;
61741;SDS011;47650;49.848;9.620;2023-04-03T02:26:16;5.55;;;2.72;;
61741;SDS011;47650;49.848;9.620;2023-04-03T02:28:41;4.13;;;2.80;;
61741;SDS011;47650;49.848;9.620;2023-04-03T02:31:08;4.32;;;2.70;;
61741;SDS011;47650;49.848;9.620;2023-04-03T02:33:35;5.07;;;2.90;;
61741;SDS011;47650;49.848;9.620;2023-04-03T02:36:06;5.93;;;3.00;;
61741;SDS011;47650;49.848;9.620;2023-04-03T02:38:33;4.20;;;2.88;;
61741;SDS011;47650;49.848;9.620;2023-04-03T02:41:11;3.22;;;2.63;;
61741;SDS011;47650;49.848;9.620;2023-04-03T02:43:37;5.88;;;3.10;;
61741;SDS011;47650;49.848;9.620;2023-04-03T02:46:10;4.50;;;3.00;;
61741;SDS011;47650;49.848;9.620;2023-04-03T02:48:42;5.78;;;3.25;;
61741;SDS011;47650;49.848;9.620;2023-04-03T02:51:07;4.53;;;2.72;;
61741;SDS011;47650;49.848;9.620;2023-04-03T02:53:34;5.22;;;2.90;;
61741;SDS011;47650;49.848;9.620;2023-04-03T02:56:00;3.90;;;3.10;;
61741;SDS011;47650;49.848;9.620;2023-04-03T02:58:39;5.68;;;2.85;;
61741;SDS011;47650;49.848;9.620;2023-04-03T03:01:28;5.30;;;3.13;;
61741;SDS011;47650;49.848;9.620;2023-04-03T03:03:56;6.70;;;3.08;;
61741;SDS011;47650;49.848;9.620;2023-04-03T03:06:24;6.32;;;3.35;;
61741;SDS011;47650;49.848;9.620;2023-04-03T03:08:50;6.65;;;3.40;;
61741;SDS011;47650;49.848;9.620;2023-04-03T03:11:18;5.50;;;3.30;;
61741;SDS011;47650;49.848;9.620;2023-04-03T03:13:45;4.28;;;3.35;;
61741;SDS011;47650;49.848;9.620;2023-04-03T03:16:11;6.28;;;3.58;;
61741;SDS011;47650;49.848;9.620;2023-04-03T03:18:37;5.13;;;3.20;;
61741;SDS011;47650;49.848;9.620;2023-04-03T03:21:04;10.48;;;5.68;;
61741;SDS011;47650;49.848;9.620;2023-04-03T03:23:51;10.48;;;5.32;;
61741;SDS011;47650;49.848;9.620;2023-04-03T03:26:26;8.25;;;4.93;;
61741;SDS011;47650;49.848;9.620;2023-04-03T03:28:57;5.90;;;3.95;;
61741;SDS011;47650;49.848;9.620;2023-04-03T03:31:23;5.60;;;3.90;;
61741;SDS011;47650;49.848;9.620;2023-04-03T03:33:51;5.35;;;3.35;;
61741;SDS011;47650;49.848;9.620;2023-04-03T03:36:17;7.13;;;3.70;;
61741;SDS011;47650;49.848;9.620;2023-04-03T03:38:49;4.80;;;3.58;;
61741;SDS011;47650;49.848;9.620;2023-04-03T03:41:15;5.50;;;3.30;;
61741;SDS011;47650;49.848;9.620;2023-04-03T03:43:44;5.93;;;3.67;;
61741;SDS011;47650;49.848;9.620;2023-04-03T03:46:10;6.60;;;3.67;;
61741;SDS011;47650;49.848;9.620;2023-04-03T03:48:35;6.07;;;3.53;;
61741;SDS011;47650;49.848;9.620;2023-04-03T03:51:03;5.90;;;3.83;;
61741;SDS011;47650;49.848;9.620;2023-04-03T03:53:30;8.05;;;3.60;;
61741;SDS011;47650;49.848;9.620;2023-04-03T03:55:55;8.10;;;3.80;;
61741;SDS011;47650;49.848;9.620;2023-04-03T03:58:22;6.47;;;3.55;;
61741;SDS011;47650;49.848;9.620;2023-04-03T04:00:48;5.70;;;3.50;;
61741;SDS011;47650;49.848;9.620;2023-04-03T04:03:13;10.85;;;3.25;;
61741;SDS011;47650;49.848;9.620;2023-04-03T04:05:39;7.75;;;3.70;;
61741;SDS011;47650;49.848;9.620;2023-04-03T04:08:06;5.65;;;3.22;;
61741;SDS011;47650;49.848;9.620;2023-04-03T04:10:31;9.00;;;3.72;;
61741;SDS011;47650;49.848;9.620;2023-04-03T04:12:57;5.32;;;2.45;;
61741;SDS011;47650;49.848;9.620;2023-04-03T04:15:24;7.20;;;3.15;;
61741;SDS011;47650;49.848;9.620;2023-04-03T04:17:58;7.85;;;3.05;;
61741;SDS011;47650;49.848;9.620;2023-04-03T04:20:36;5.13;;;2.45;;
61741;SDS011;47650;49.848;9.620;2023-04-03T04:23:08;9.48;;;2.45;;
61741;SDS011;47650;49.848;9.620;2023-04-03T04:25:34;6.95;;;2.70;;
61741;SDS011;47650;49.848;9.620;2023-04-03T04:28:01;7.50;;;2.45;;
61741;SDS011;47650;49.848;9.620;2023-04-03T04:30:29;6.47;;;2.45;;
61741;SDS011;47650;49.848;9.620;2023-04-03T04:32:55;6.35;;;2.63;;
61741;SDS011;47650;49.848;9.620;2023-04-03T04:35:22;5.97;;;2.70;;
61741;SDS011;47650;49.848;9.620;2023-04-03T04:37:47;4.90;;;2.58;;
61741;SDS011;47650;49.848;9.620;2023-04-03T04:40:20;7.78;;;3.40;;
61741;SDS011;47650;49.848;9.620;2023-04-03T04:43:00;5.93;;;2.30;;
61741;SDS011;47650;49.848;9.620;2023-04-03T04:45:31;5.65;;;2.70;;
61741;SDS011;47650;49.848;9.620;2023-04-03T04:47:59;7.40;;;3.38;;
61741;SDS011;47650;49.848;9.620;2023-04-03T04:50:27;5.38;;;2.50;;
61741;SDS011;47650;49.848;9.620;2023-04-03T04:52:53;5.75;;;2.80;;
61741;SDS011;47650;49.848;9.620;2023-04-03T04:55:18;6.00;;;2.70;;
61741;SDS011;47650;49.848;9.620;2023-04-03T04:57:54;6.75;;;2.65;;
61741;SDS011;47650;49.848;9.620;2023-04-03T05:00:20;9.38;;;2.90;;
61741;SDS011;47650;49.848;9.620;2023-04-03T05:02:46;7.63;;;2.95;;
61741;SDS011;47650;49.848;9.620;2023-04-03T05:05:11;7.18;;;2.58;;
61741;SDS011;47650;49.848;9.620;2023-04-03T05:07:48;7.68;;;3.22;;
61741;SDS011;47650;49.848;9.620;2023-04-03T05:10:13;9.43;;;3.15;;
61741;SDS011;47650;49.848;9.620;2023-04-03T05:12:39;5.95;;;2.90;;
61741;SDS011;47650;49.848;9.620;2023-04-03T05:15:05;8.05;;;3.38;;
61741;SDS011;47650;49.848;9.620;2023-04-03T05:17:31;5.50;;;2.80;;
61741;SDS011;47650;49.848;9.620;2023-04-03T05:19:56;6.65;;;3.25;;
61741;SDS011;47650;49.848;9.620;2023-04-03T05:22:30;6.80;;;3.20;;
61741;SDS011;47650;49.848;9.620;2023-04-03T05:24:56;9.15;;;3.30;;
61741;SDS011;47650;49.848;9.620;2023-04-03T05:27:29;8.02;;;2.83;;
61741;SDS011;47650;49.848;9.620;2023-04-03T05:30:02;5.38;;;3.20;;
61741;SDS011;47650;49.848;9.620;2023-04-03T05:32:29;7.05;;;3.15;;
61741;SDS011;47650;49.848;9.620;2023-04-03T05:35:02;8.65;;;3.00;;
61741;SDS011;47650;49.848;9.620;2023-04-03T05:37:27;6.57;;;2.95;;
61741;SDS011;47650;49.848;9.620;2023-04-03T05:39:52;7.35;;;2.95;;
61741;SDS011;47650;49.848;9.620;2023-04-03T05:42:18;7.35;;;3.15;;
61741;SDS011;47650;49.848;9.620;2023-04-03T05:44:43;10.50;;;3.05;;
61741;SDS011;47650;49.848;9.620;2023-04-03T05:47:17;7.53;;;3.63;;
61741;SDS011;47650;49.848;9.620;2023-04-03T05:49:43;6.43;;;3.72;;
61741;SDS011;47650;49.848;9.620;2023-04-03T05:54:58;6.25;;;3.10;;
61741;SDS011;47650;49.848;9.620;2023-04-03T05:57:25;4.80;;;3.00;;
61741;SDS011;47650;49.848;9.620;2023-04-03T05:59:53;7.43;;;2.85;;
61741;SDS011;47650;49.848;9.620;2023-04-03T06:02:20;5.90;;;2.92;;
61741;SDS011;47650;49.848;9.620;2023-04-03T06:04:47;7.53;;;3.00;;
61741;SDS011;47650;49.848;9.620;2023-04-03T06:07:15;8.13;;;2.97;;
61741;SDS011;47650;49.848;9.620;2023-04-03T06:09:49;8.05;;;2.92;;
61741;SDS011;47650;49.848;9.620;2023-04-03T06:12:24;6.57;;;3.47;;
61741;SDS011;47650;49.848;9.620;2023-04-03T06:14:50;7.70;;;3.78;;
61741;SDS011;47650;49.848;9.620;2023-04-03T06:17:16;8.85;;;3.45;;
61741;SDS011;47650;49.848;9.620;2023-04-03T06:19:44;5.97;;;3.45;;
61741;SDS011;47650;49.848;9.620;2023-04-03T06:22:16;7.10;;;3.50;;
61741;SDS011;47650;49.848;9.620;2023-04-03T06:24:44;9.05;;;3.30;;
61741;SDS011;47650;49.848;9.620;2023-04-03T06:27:10;9.00;;;2.90;;
61741;SDS011;47650;49.848;9.620;2023-04-03T06:29:37;5.40;;;3.10;;
61741;SDS011;47650;49.848;9.620;2023-04-03T06:32:02;8.85;;;2.92;;
61741;SDS011;47650;49.848;9.620;2023-04-03T06:34:32;7.80;;;2.90;;
61741;SDS011;47650;49.848;9.620;2023-04-03T06:36:58;9.07;;;3.10;;
61741;SDS011;47650;49.848;9.620;2023-04-03T06:39:23;6.85;;;3.10;;
61741;SDS011;47650;49.848;9.620;2023-04-03T06:41:59;7.15;;;3.17;;
61741;SDS011;47650;49.848;9.620;2023-04-03T06:44:25;9.15;;;3.15;;
61741;SDS011;47650;49.848;9.620;2023-04-03T06:46:56;7.00;;;2.75;;
61741;SDS011;47650;49.848;9.620;2023-04-03T06:49:23;6.43;;;3.10;;
61741;SDS011;47650;49.848;9.620;2023-04-03T06:51:53;5.10;;;2.65;;
61741;SDS011;47650;49.848;9.620;2023-04-03T06:54:28;7.28;;;3.28;;
61741;SDS011;47650;49.848;9.620;2023-04-03T06:57:04;6.18;;;3.00;;
61741;SDS011;47650;49.848;9.620;2023-04-03T06:59:36;7.22;;;2.67;;
61741;SDS011;47650;49.848;9.620;2023-04-03T07:02:02;5.78;;;2.40;;
61741;SDS011;47650;49.848;9.620;2023-04-03T07:04:29;6.35;;;2.85;;
61741;SDS011;47650;49.848;9.620;2023-04-03T07:07:02;7.70;;;2.70;;
61741;SDS011;47650;49.848;9.620;2023-04-03T07:09:27;4.88;;;2.70;;
61741;SDS011;47650;49.848;9.620;2023-04-03T07:11:54;10.98;;;2.50;;
61741;SDS011;47650;49.848;9.620;2023-04-03T07:14:24;5.93;;;2.58;;
61741;SDS011;47650;49.848;9.620;2023-04-03T07:16:50;4.75;;;2.25;;
61741;SDS011;47650;49.848;9.620;2023-04-03T07:19:16;6.45;;;2.78;;
61741;SDS011;47650;49.848;9.620;2023-04-03T07:21:43;4.35;;;2.38;;
61741;SDS011;47650;49.848;9.620;2023-04-03T07:24:08;6.28;;;2.83;;
61741;SDS011;47650;49.848;9.620;2023-04-03T07:26:37;4.18;;;2.05;;
61741;SDS011;47650;49.848;9.620;2023-04-03T07:29:13;5.68;;;2.53;;
61741;SDS011;47650;49.848;9.620;2023-04-03T07:31:46;5.70;;;2.50;;
61741;SDS011;47650;49.848;9.620;2023-04-03T07:36:47;6.13;;;2.65;;
61741;SDS011;47650;49.848;9.620;2023-04-03T07:39:12;4.95;;;2.65;;
61741;SDS011;47650;49.848;9.620;2023-04-03T07:41:44;4.97;;;2.45;;
61741;SDS011;47650;49.848;9.620;2023-04-03T07:44:10;5.35;;;2.53;;
61741;SDS011;47650;49.848;9.620;2023-04-03T07:46:37;5.65;;;2.28;;
61741;SDS011;47650;49.848;9.620;2023-04-03T07:51:44;3.75;;;2.10;;
61741;SDS011;47650;49.848;9.620;2023-04-03T07:54:11;8.25;;;2.40;;
61741;SDS011;47650;49.848;9.620;2023-04-03T07:56:37;5.55;;;1.92;;
61741;SDS011;47650;49.848;9.620;2023-04-03T07:59:07;3.95;;;2.20;;
61741;SDS011;47650;49.848;9.620;2023-04-03T08:01:34;4.63;;;2.38;;
61741;SDS011;47650;49.848;9.620;2023-04-03T08:04:06;3.97;;;2.33;;
61741;SDS011;47650;49.848;9.620;2023-04-03T08:06:31;6.22;;;2.08;;
61741;SDS011;47650;49.848;9.620;2023-04-03T08:09:01;4.72;;;2.75;;
61741;SDS011;47650;49.848;9.620;2023-04-03T08:11:29;4.70;;;2.10;;
61741;SDS011;47650;49.848;9.620;2023-04-03T08:13:57;4.30;;;2.22;;
61741;SDS011;47650;49.848;9.620;2023-04-03T08:16:25;4.03;;;2.20;;
61741;SDS011;47650;49.848;9.620;2023-04-03T08:18:53;4.35;;;2.10;;
61741;SDS011;47650;49.848;9.620;2023-04-03T08:21:20;4.85;;;2.72;;
61741;SDS011;47650;49.848;9.620;2023-04-03T08:23:48;8.23;;;2.25;;
61741;SDS011;47650;49.848;9.620;2023-04-03T08:26:21;4.20;;;1.73;;
61741;SDS011;47650;49.848;9.620;2023-04-03T08:28:52;3.95;;;2.17;;
61741;SDS011;47650;49.848;9.620;2023-04-03T08:31:18;5.65;;;2.20;;
61741;SDS011;47650;49.848;9.620;2023-04-03T08:33:45;4.20;;;2.13;;
61741;SDS011;47650;49.848;9.620;2023-04-03T08:38:45;6.20;;;2.55;;
61741;SDS011;47650;49.848;9.620;2023-04-03T08:41:14;4.50;;;2.40;;
61741;SDS011;47650;49.848;9.620;2023-04-03T08:54:56;4.55;;;2.08;;
61741;SDS011;47650;49.848;9.620;2023-04-03T08:57:34;4.88;;;2.33;;
61741;SDS011;47650;49.848;9.620;2023-04-03T09:00:06;4.80;;;2.17;;
61741;SDS011;47650;49.848;9.620;2023-04-03T09:02:49;6.53;;;2.60;;
61741;SDS011;47650;49.848;9.620;2023-04-03T09:05:20;4.70;;;2.00;;
61741;SDS011;47650;49.848;9.620;2023-04-03T09:08:04;3.13;;;2.10;;
61741;SDS011;47650;49.848;9.620;2023-04-03T09:10:38;3.67;;;2.38;;
61741;SDS011;47650;49.848;9.620;2023-04-03T09:13:08;5.55;;;2.60;;
61741;SDS011;47650;49.848;9.620;2023-04-03T09:15:46;3.55;;;2.00;;
61741;SDS011;47650;49.848;9.620;2023-04-03T09:18:16;4.85;;;2.55;;
61741;SDS011;47650;49.848;9.620;2023-04-03T09:23:53;4.78;;;2.35;;
61741;SDS011;47650;49.848;9.620;2023-04-03T09:26:24;4.03;;;2.30;;
61741;SDS011;47650;49.848;9.620;2023-04-03T09:29:19;4.43;;;2.30;;
61741;SDS011;47650;49.848;9.620;2023-04-03T09:31:48;3.30;;;2.13;;
61741;SDS011;47650;49.848;9.620;2023-04-03T09:34:24;2.78;;;1.85;;
61741;SDS011;47650;49.848;9.620;2023-04-03T09:37:02;3.08;;;2.13;;
61741;SDS011;47650;49.848;9.620;2023-04-03T09:40:04;3.08;;;1.83;;
61741;SDS011;47650;49.848;9.620;2023-04-03T09:42:51;4.47;;;2.10;;
61741;SDS011;47650;49.848;9.620;2023-04-03T09:45:25;3.67;;;1.90;;
61741;SDS011;47650;49.848;9.620;2023-04-03T09:48:15;3.70;;;2.00;;
61741;SDS011;47650;49.848;9.620;2023-04-03T09:50:59;4.05;;;2.28;;
61741;SDS011;47650;49.848;9.620;2023-04-03T09:53:39;3.72;;;2.10;;
61741;SDS011;47650;49.848;9.620;2023-04-03T09:56:19;4.88;;;2.33;;
61741;SDS011;47650;49.848;9.620;2023-04-03T09:58:49;6.35;;;2.20;;
61741;SDS011;47650;49.848;9.620;2023-04-03T10:01:28;4.25;;;2.40;;
61741;SDS011;47650;49.848;9.620;2023-04-03T10:04:16;4.50;;;2.28;;
61741;SDS011;47650;49.848;9.620;2023-04-03T10:06:45;5.47;;;2.20;;
61741;SDS011;47650;49.848;9.620;2023-04-03T10:09:24;3.83;;;2.10;;
61741;SDS011;47650;49.848;9.620;2023-04-03T10:14:36;3.30;;;2.42;;
61741;SDS011;47650;49.848;9.620;2023-04-03T10:17:05;3.67;;;2.00;;
61741;SDS011;47650;49.848;9.620;2023-04-03T10:19:55;3.80;;;1.95;;
61741;SDS011;47650;49.848;9.620;2023-04-03T10:25:29;4.88;;;1.98;;
61741;SDS011;47650;49.848;9.620;2023-04-03T10:30:49;4.65;;;2.38;;
61741;SDS011;47650;49.848;9.620;2023-04-03T10:38:57;2.85;;;1.90;;
61741;SDS011;47650;49.848;9.620;2023-04-03T10:46:58;2.75;;;1.98;;
61741;SDS011;47650;49.848;9.620;2023-04-03T10:52:52;4.05;;;2.38;;
61741;SDS011;47650;49.848;9.620;2023-04-03T10:55:37;3.80;;;2.30;;
61741;SDS011;47650;49.848;9.620;2023-04-03T10:58:18;2.95;;;2.38;;
61741;SDS011;47650;49.848;9.620;2023-04-03T11:00:53;3.03;;;1.92;;
61741;SDS011;47650;49.848;9.620;2023-04-03T11:03:30;3.28;;;1.83;;
61741;SDS011;47650;49.848;9.620;2023-04-03T11:06:05;3.47;;;2.17;;
61741;SDS011;47650;49.848;9.620;2023-04-03T11:16:43;3.50;;;2.30;;
61741;SDS011;47650;49.848;9.620;2023-04-03T11:19:24;4.38;;;2.13;;
61741;SDS011;47650;49.848;9.620;2023-04-03T11:21:57;3.83;;;2.35;;
61741;SDS011;47650;49.848;9.620;2023-04-03T11:24:32;3.33;;;2.20;;
61741;SDS011;47650;49.848;9.620;2023-04-03T11:26:59;3.10;;;2.00;;
61741;SDS011;47650;49.848;9.620;2023-04-03T11:29:31;4.72;;;2.17;;
61741;SDS011;47650;49.848;9.620;2023-04-03T11:32:02;3.08;;;2.10;;
61741;SDS011;47650;49.848;9.620;2023-04-03T11:34:46;2.92;;;2.00;;
61741;SDS011;47650;49.848;9.620;2023-04-03T11:40:21;3.40;;;2.08;;
61741;SDS011;47650;49.848;9.620;2023-04-03T11:42:55;3.10;;;2.00;;
61741;SDS011;47650;49.848;9.620;2023-04-03T11:45:37;3.55;;;2.00;;
61741;SDS011;47650;49.848;9.620;2023-04-03T11:50:46;2.95;;;1.80;;
61741;SDS011;47650;49.848;9.620;2023-04-03T12:00:53;2.90;;;1.98;;
61741;SDS011;47650;49.848;9.620;2023-04-03T12:06:42;2.78;;;2.15;;
61741;SDS011;47650;49.848;9.620;2023-04-03T12:08:44;2.60;;;2.00;;
61741;SDS011;47650;49.848;9.620;2023-04-03T12:11:21;3.03;;;2.10;;
61741;SDS011;47650;49.848;9.620;2023-04-03T12:16:32;2.92;;;2.17;;
61741;SDS011;47650;49.848;9.620;2023-04-03T12:29:38;2.60;;;1.80;;
61741;SDS011;47650;49.848;9.620;2023-04-03T12:35:27;2.40;;;1.70;;
61741;SDS011;47650;49.848;9.620;2023-04-03T12:41:18;2.72;;;1.75;;
61741;SDS011;47650;49.848;9.620;2023-04-03T12:46:52;2.47;;;1.90;;
61741;SDS011;47650;49.848;9.620;2023-04-03T12:49:26;2.35;;;1.73;;
61741;SDS011;47650;49.848;9.620;2023-04-03T12:52:16;2.22;;;1.65;;
61741;SDS011;47650;49.848;9.620;2023-04-03T12:54:50;4.68;;;2.10;;
61741;SDS011;47650;49.848;9.620;2023-04-03T12:57:19;2.22;;;1.92;;
61741;SDS011;47650;49.848;9.620;2023-04-03T12:59:50;2.53;;;1.80;;
61741;SDS011;47650;49.848;9.620;2023-04-03T13:02:27;3.95;;;2.10;;
61741;SDS011;47650;49.848;9.620;2023-04-03T13:05:06;3.58;;;1.95;;
61741;SDS011;47650;49.848;9.620;2023-04-03T13:07:37;2.92;;;1.80;;
61741;SDS011;47650;49.848;9.620;2023-04-03T13:12:33;2.63;;;1.40;;
61741;SDS011;47650;49.848;9.620;2023-04-03T13:15:14;3.15;;;1.90;;
61741;SDS011;47650;49.848;9.620;2023-04-03T13:17:46;2.58;;;1.45;;
61741;SDS011;47650;49.848;9.620;2023-04-03T13:20:17;3.08;;;2.20;;
61741;SDS011;47650;49.848;9.620;2023-04-03T13:22:47;2.28;;;1.70;;
61741;SDS011;47650;49.848;9.620;2023-04-03T13:25:19;2.85;;;2.00;;
61741;SDS011;47650;49.848;9.620;2023-04-03T13:27:46;2.60;;;2.00;;
61741;SDS011;47650;49.848;9.620;2023-04-03T13:30:20;1.98;;;1.75;;
61741;SDS011;47650;49.848;9.620;2023-04-03T13:32:49;2.42;;;1.67;;
61741;SDS011;47650;49.848;9.620;2023-04-03T13:35:26;2.67;;;1.77;;
61741;SDS011;47650;49.848;9.620;2023-04-03T13:37:57;2.70;;;2.08;;
61741;SDS011;47650;49.848;9.620;2023-04-03T13:40:53;2.63;;;1.73;;
61741;SDS011;47650;49.848;9.620;2023-04-03T13:43:23;4.40;;;1.90;;
61741;SDS011;47650;49.848;9.620;2023-04-03T13:45:59;1.98;;;1.77;;
61741;SDS011;47650;49.848;9.620;2023-04-03T13:48:48;1.98;;;1.77;;
61741;SDS011;47650;49.848;9.620;2023-04-03T13:51:20;3.35;;;1.73;;
61741;SDS011;47650;49.848;9.620;2023-04-03T13:53:53;2.95;;;2.20;;
61741;SDS011;47650;49.848;9.620;2023-04-03T13:56:23;1.88;;;1.70;;
61741;SDS011;47650;49.848;9.620;2023-04-03T13:58:56;2.70;;;1.92;;
61741;SDS011;47650;49.848;9.620;2023-04-03T14:01:22;2.17;;;1.50;;
61741;SDS011;47650;49.848;9.620;2023-04-03T14:03:53;2.72;;;1.67;;
61741;SDS011;47650;49.848;9.620;2023-04-03T14:06:30;3.33;;;2.20;;
61741;SDS011;47650;49.848;9.620;2023-04-03T14:08:56;2.58;;;1.90;;
61741;SDS011;47650;49.848;9.620;2023-04-03T14:11:24;2.63;;;2.20;;
61741;SDS011;47650;49.848;9.620;2023-04-03T14:13:53;2.13;;;1.92;;
61741;SDS011;47650;49.848;9.620;2023-04-03T14:16:23;2.55;;;1.90;;
61741;SDS011;47650;49.848;9.620;2023-04-03T14:18:52;2.95;;;2.17;;
61741;SDS011;47650;49.848;9.620;2023-04-03T14:21:18;2.72;;;2.33;;
61741;SDS011;47650;49.848;9.620;2023-04-03T14:23:54;2.80;;;2.10;;
61741;SDS011;47650;49.848;9.620;2023-04-03T14:26:22;2.78;;;2.38;;
61741;SDS011;47650;49.848;9.620;2023-04-03T14:28:53;3.10;;;2.15;;
61741;SDS011;47650;49.848;9.620;2023-04-03T14:31:20;2.85;;;2.13;;
61741;SDS011;47650;49.848;9.620;2023-04-03T14:33:54;2.95;;;2.10;;
61741;SDS011;47650;49.848;9.620;2023-04-03T14:38:52;3.35;;;2.15;;
61741;SDS011;47650;49.848;9.620;2023-04-03T14:41:20;2.55;;;2.10;;
61741;SDS011;47650;49.848;9.620;2023-04-03T14:43:48;3.08;;;2.17;;
61741;SDS011;47650;49.848;9.620;2023-04-03T14:46:15;3.33;;;2.50;;
61741;SDS011;47650;49.848;9.620;2023-04-03T14:48:57;3.30;;;2.40;;
61741;SDS011;47650;49.848;9.620;2023-04-03T14:51:24;4.00;;;1.98;;
61741;SDS011;47650;49.848;9.620;2023-04-03T14:53:52;3.28;;;2.35;;
61741;SDS011;47650;49.848;9.620;2023-04-03T14:56:26;3.92;;;2.10;;
61741;SDS011;47650;49.848;9.620;2023-04-03T14:58:57;2.88;;;2.25;;
61741;SDS011;47650;49.848;9.620;2023-04-03T15:01:24;3.40;;;2.55;;
61741;SDS011;47650;49.848;9.620;2023-04-03T15:03:52;3.42;;;2.13;;
61741;SDS011;47650;49.848;9.620;2023-04-03T15:06:19;3.10;;;2.20;;
61741;SDS011;47650;49.848;9.620;2023-04-03T15:08:45;3.20;;;2.20;;
61741;SDS011;47650;49.848;9.620;2023-04-03T15:11:11;3.47;;;2.20;;
61741;SDS011;47650;49.848;9.620;2023-04-03T15:13:40;3.22;;;1.90;;
61741;SDS011;47650;49.848;9.620;2023-04-03T15:16:16;3.55;;;2.22;;
61741;SDS011;47650;49.848;9.620;2023-04-03T15:18:49;3.17;;;2.38;;
61741;SDS011;47650;49.848;9.620;2023-04-03T15:21:26;3.83;;;2.28;;
61741;SDS011;47650;49.848;9.620;2023-04-03T15:23:57;3.60;;;2.40;;
61741;SDS011;47650;49.848;9.620;2023-04-03T15:26:23;3.45;;;2.33;;
61741;SDS011;47650;49.848;9.620;2023-04-03T15:28:58;3.47;;;2.13;;
61741;SDS011;47650;49.848;9.620;2023-04-03T15:31:34;3.63;;;2.10;;
61741;SDS011;47650;49.848;9.620;2023-04-03T15:34:03;2.83;;;2.08;;
61741;SDS011;47650;49.848;9.620;2023-04-03T15:36:34;4.75;;;2.45;;
61741;SDS011;47650;49.848;9.620;2023-04-03T15:39:11;3.40;;;2.10;;
61741;SDS011;47650;49.848;9.620;2023-04-03T15:41:42;2.83;;;1.83;;
61741;SDS011;47650;49.848;9.620;2023-04-03T15:44:18;3.65;;;2.10;;
61741;SDS011;47650;49.848;9.620;2023-04-03T15:46:45;3.22;;;2.10;;
61741;SDS011;47650;49.848;9.620;2023-04-03T15:49:11;2.40;;;1.98;;
61741;SDS011;47650;49.848;9.620;2023-04-03T15:51:43;3.63;;;2.00;;
61741;SDS011;47650;49.848;9.620;2023-04-03T15:54:10;3.33;;;2.00;;
61741;SDS011;47650;49.848;9.620;2023-04-03T15:56:51;3.67;;;2.05;;
61741;SDS011;47650;49.848;9.620;2023-04-03T15:59:32;2.42;;;1.80;;
61741;SDS011;47650;49.848;9.620;2023-04-03T16:01:58;2.78;;;2.00;;
61741;SDS011;47650;49.848;9.620;2023-04-03T16:04:26;2.60;;;1.65;;
61741;SDS011;47650;49.848;9.620;2023-04-03T16:06:52;2.70;;;1.58;;
61741;SDS011;47650;49.848;9.620;2023-04-03T16:09:18;2.83;;;1.70;;
61741;SDS011;47650;49.848;9.620;2023-04-03T16:11:51;2.92;;;1.77;;
61741;SDS011;47650;49.848;9.620;2023-04-03T16:16:46;2.67;;;1.73;;
61741;SDS011;47650;49.848;9.620;2023-04-03T16:19:16;3.60;;;1.88;;
61741;SDS011;47650;49.848;9.620;2023-04-03T16:21:43;4.53;;;2.08;;
61741;SDS011;47650;49.848;9.620;2023-04-03T16:24:11;5.93;;;2.42;;
61741;SDS011;47650;49.848;9.620;2023-04-03T16:26:36;3.33;;;1.88;;
61741;SDS011;47650;49.848;9.620;2023-04-03T16:29:11;4.10;;;2.17;;
61741;SDS011;47650;49.848;9.620;2023-04-03T16:31:39;3.10;;;1.85;;
61741;SDS011;47650;49.848;9.620;2023-04-03T16:34:22;3.53;;;2.00;;
61741;SDS011;47650;49.848;9.620;2023-04-03T16:36:50;3.58;;;1.70;;
61741;SDS011;47650;49.848;9.620;2023-04-03T16:39:17;2.53;;;1.60;;
61741;SDS011;47650;49.848;9.620;2023-04-03T16:41:42;2.60;;;1.52;;
61741;SDS011;47650;49.848;9.620;2023-04-03T16:44:07;6.40;;;1.83;;
61741;SDS011;47650;49.848;9.620;2023-04-03T16:46:34;5.70;;;1.85;;
61741;SDS011;47650;49.848;9.620;2023-04-03T16:49:00;3.53;;;1.85;;
61741;SDS011;47650;49.848;9.620;2023-04-03T16:51:29;3.85;;;1.70;;
61741;SDS011;47650;49.848;9.620;2023-04-03T16:54:03;1.83;;;1.40;;
61741;SDS011;47650;49.848;9.620;2023-04-03T16:56:32;3.45;;;1.73;;
61741;SDS011;47650;49.848;9.620;2023-04-03T17:02:00;4.10;;;1.60;;
61741;SDS011;47650;49.848;9.620;2023-04-03T17:04:32;2.70;;;1.55;;
61741;SDS011;47650;49.848;9.620;2023-04-03T17:06:57;3.88;;;1.83;;